createdAt,value
2023-02-27T00:00:29.614Z,992.75
2023-02-27T00:01:29.634Z,992.76
2023-02-27T00:02:29.611Z,992.75
2023-02-27T00:03:29.622Z,992.75
2023-02-27T00:04:29.580Z,992.74
2023-02-27T00:05:29.569Z,992.74
2023-02-27T00:06:30.023Z,992.75
2023-02-27T00:07:29.553Z,992.75
2023-02-27T00:08:29.561Z,992.76
2023-02-27T00:09:29.536Z,992.74
2023-02-27T00:10:29.507Z,992.75
2023-02-27T00:11:29.868Z,992.75
2023-02-27T00:12:29.508Z,992.72
2023-02-27T00:13:29.473Z,992.75
2023-02-27T00:14:29.454Z,992.76
2023-02-27T00:15:29.452Z,992.79
2023-02-27T00:16:29.498Z,992.79
2023-02-27T00:17:29.435Z,992.80
2023-02-27T00:18:29.433Z,992.80
2023-02-27T00:19:29.421Z,992.79
2023-02-27T00:20:29.398Z,992.81
2023-02-27T00:21:29.398Z,992.81
2023-02-27T00:22:29.378Z,992.80
2023-02-27T00:23:29.395Z,992.81
2023-02-27T00:24:29.360Z,992.83
2023-02-27T00:25:29.363Z,992.81
2023-02-27T00:26:29.333Z,992.84
2023-02-27T00:27:29.338Z,992.82
2023-02-27T00:28:29.324Z,992.84
2023-02-27T00:29:29.337Z,992.85
2023-02-27T00:30:29.321Z,992.85
2023-02-27T00:31:29.753Z,992.84
2023-02-27T00:32:29.356Z,992.87
2023-02-27T00:33:29.283Z,992.87
2023-02-27T00:34:29.283Z,992.87
2023-02-27T00:35:29.244Z,992.90
2023-02-27T00:36:29.216Z,992.88
2023-02-27T00:37:29.220Z,992.89
2023-02-27T00:38:29.205Z,992.91
2023-02-27T00:39:29.188Z,992.89
2023-02-27T00:40:29.210Z,992.86
2023-02-27T00:41:29.311Z,992.88
2023-02-27T00:42:29.164Z,992.86
2023-02-27T00:43:29.160Z,992.87
2023-02-27T00:44:29.150Z,992.90
2023-02-27T00:45:29.151Z,992.91
2023-02-27T00:46:29.171Z,992.93
2023-02-27T00:47:29.123Z,992.93
2023-02-27T00:48:29.103Z,992.95
2023-02-27T00:49:29.118Z,992.94
2023-02-27T00:50:29.088Z,992.93
2023-02-27T00:51:29.083Z,992.94
2023-02-27T00:52:29.106Z,992.92
2023-02-27T00:53:29.046Z,992.93
2023-02-27T00:54:29.037Z,992.93
2023-02-27T00:55:29.043Z,992.94
2023-02-27T00:56:29.031Z,992.96
2023-02-27T00:57:29.071Z,992.95
2023-02-27T00:58:29.042Z,992.97
2023-02-27T00:59:28.987Z,992.97
2023-02-27T01:00:29.042Z,992.97
2023-02-27T01:01:29.242Z,992.99
2023-02-27T01:02:29.003Z,992.97
2023-02-27T01:03:28.976Z,992.98
2023-02-27T01:04:28.927Z,992.99
2023-02-27T01:05:28.922Z,992.99
2023-02-27T01:06:28.924Z,993.00
2023-02-27T01:07:28.931Z,992.99
2023-02-27T01:08:28.903Z,993.02
2023-02-27T01:09:28.919Z,993.00
2023-02-27T01:10:28.883Z,993.00
2023-02-27T01:11:28.884Z,993.02
2023-02-27T01:12:28.892Z,993.01
2023-02-27T01:13:28.859Z,993.03
2023-02-27T01:14:29.339Z,993.05
2023-02-27T01:15:28.840Z,993.05
2023-02-27T01:16:28.899Z,993.06
2023-02-27T01:17:28.816Z,993.06
2023-02-27T01:18:28.789Z,993.07
2023-02-27T01:19:28.787Z,993.06
2023-02-27T01:20:28.797Z,993.07
2023-02-27T01:21:29.102Z,993.07
2023-02-27T01:22:28.759Z,993.04
2023-02-27T01:23:28.768Z,993.05
2023-02-27T01:24:28.749Z,993.05
2023-02-27T01:25:28.747Z,993.05
2023-02-27T01:26:28.757Z,993.06
2023-02-27T01:27:28.731Z,993.07
2023-02-27T01:28:28.708Z,993.08
2023-02-27T01:29:28.702Z,993.07
2023-02-27T01:30:28.725Z,993.07
2023-02-27T01:31:29.147Z,993.06
2023-02-27T01:32:28.863Z,993.07
2023-02-27T01:33:28.671Z,993.07
2023-02-27T01:34:28.641Z,993.07
2023-02-27T01:35:28.631Z,993.06
2023-02-27T01:36:28.616Z,993.06
2023-02-27T01:37:28.634Z,993.05
2023-02-27T01:38:28.619Z,993.06
2023-02-27T01:39:28.604Z,993.06
2023-02-27T01:40:28.567Z,993.07
2023-02-27T01:41:28.746Z,993.06
2023-02-27T01:42:28.555Z,993.05
2023-02-27T01:43:28.537Z,993.05
2023-02-27T01:44:28.526Z,993.05
2023-02-27T01:45:28.692Z,993.05
2023-02-27T01:46:28.515Z,993.06
2023-02-27T01:47:28.514Z,993.06
2023-02-27T01:48:28.511Z,993.06
2023-02-27T01:49:28.503Z,993.06
2023-02-27T01:50:28.517Z,993.05
2023-02-27T01:51:28.816Z,993.03
2023-02-27T01:52:28.456Z,993.05
2023-02-27T01:53:28.468Z,993.06
2023-02-27T01:54:28.432Z,993.08
2023-02-27T01:55:28.416Z,993.07
2023-02-27T01:56:28.436Z,993.08
2023-02-27T01:57:28.396Z,993.05
2023-02-27T01:58:28.421Z,993.07
2023-02-27T01:59:28.382Z,993.06
2023-02-27T02:00:28.372Z,993.03
2023-02-27T02:01:28.827Z,993.02
2023-02-27T02:02:28.403Z,993.03
2023-02-27T02:03:28.344Z,993.04
2023-02-27T02:04:28.351Z,993.05
2023-02-27T02:05:28.328Z,993.03
2023-02-27T02:06:28.303Z,993.01
2023-02-27T02:07:28.696Z,993.00
2023-02-27T02:08:28.304Z,992.99
2023-02-27T02:09:28.284Z,992.98
2023-02-27T02:10:28.265Z,992.96
2023-02-27T02:11:28.595Z,992.95
2023-02-27T02:12:28.257Z,992.94
2023-02-27T02:13:28.258Z,992.97
2023-02-27T02:14:28.232Z,992.96
2023-02-27T02:15:28.211Z,992.97
2023-02-27T02:16:28.271Z,992.99
2023-02-27T02:17:28.188Z,992.96
2023-02-27T02:18:28.188Z,992.95
2023-02-27T02:19:28.663Z,992.94
2023-02-27T02:20:28.188Z,992.93
2023-02-27T02:21:28.475Z,992.95
2023-02-27T02:22:28.155Z,992.93
2023-02-27T02:23:28.144Z,992.95
2023-02-27T02:24:28.147Z,992.94
2023-02-27T02:25:28.158Z,992.94
2023-02-27T02:26:31.044Z,992.92
2023-02-27T02:27:28.090Z,992.92
2023-02-27T02:28:28.084Z,992.91
2023-02-27T02:29:28.074Z,992.92
2023-02-27T02:30:28.212Z,992.90
2023-02-27T02:31:28.457Z,992.91
2023-02-27T02:32:28.119Z,992.90
2023-02-27T02:33:28.035Z,992.91
2023-02-27T02:34:28.031Z,992.92
2023-02-27T02:35:28.005Z,992.94
2023-02-27T02:36:28.002Z,992.91
2023-02-27T02:37:28.011Z,992.93
2023-02-27T02:38:27.975Z,992.95
2023-02-27T02:39:27.976Z,992.95
2023-02-27T02:40:27.970Z,992.94
2023-02-27T02:41:28.270Z,992.99
2023-02-27T02:42:27.936Z,993.00
2023-02-27T02:43:27.973Z,993.01
2023-02-27T02:44:27.930Z,993.03
2023-02-27T02:45:27.923Z,993.02
2023-02-27T02:46:27.905Z,993.03
2023-02-27T02:47:27.898Z,993.04
2023-02-27T02:48:27.900Z,993.02
2023-02-27T02:49:27.918Z,993.04
2023-02-27T02:50:27.879Z,993.01
2023-02-27T02:51:28.184Z,993.03
2023-02-27T02:52:27.836Z,993.04
2023-02-27T02:53:36.204Z,993.06
2023-02-27T02:54:27.825Z,993.08
2023-02-27T02:55:27.841Z,993.09
2023-02-27T02:56:27.792Z,993.10
2023-02-27T02:57:27.791Z,993.08
2023-02-27T02:58:27.800Z,993.10
2023-02-27T02:59:27.784Z,993.09
2023-02-27T03:00:27.774Z,993.11
2023-02-27T03:01:28.153Z,993.10
2023-02-27T03:02:27.746Z,993.11
2023-02-27T03:03:27.730Z,993.12
2023-02-27T03:04:27.759Z,993.13
2023-02-27T03:05:27.722Z,993.15
2023-02-27T03:06:27.712Z,993.15
2023-02-27T03:07:27.748Z,993.15
2023-02-27T03:08:27.668Z,993.14
2023-02-27T03:09:28.068Z,993.15
2023-02-27T03:10:27.667Z,993.15
2023-02-27T03:11:28.085Z,993.17
2023-02-27T03:12:27.630Z,993.18
2023-02-27T03:13:27.627Z,993.19
2023-02-27T03:14:27.610Z,993.21
2023-02-27T03:15:27.644Z,993.21
2023-02-27T03:16:27.628Z,993.21
2023-02-27T03:17:27.603Z,993.21
2023-02-27T03:18:27.586Z,993.21
2023-02-27T03:19:27.583Z,993.21
2023-02-27T03:20:27.550Z,993.21
2023-02-27T03:21:28.321Z,993.20
2023-02-27T03:22:27.527Z,993.21
2023-02-27T03:23:27.533Z,993.22
2023-02-27T03:24:27.528Z,993.22
2023-02-27T03:25:27.513Z,993.22
2023-02-27T03:26:27.496Z,993.22
2023-02-27T03:27:27.524Z,993.22
2023-02-27T03:28:27.475Z,993.23
2023-02-27T03:29:27.472Z,993.21
2023-02-27T03:30:27.495Z,993.21
2023-02-27T03:31:27.966Z,993.20
2023-02-27T03:32:27.472Z,993.19
2023-02-27T03:33:27.444Z,993.17
2023-02-27T03:34:27.403Z,993.18
2023-02-27T03:35:27.427Z,993.16
2023-02-27T03:36:27.402Z,993.17
2023-02-27T03:37:27.394Z,993.15
2023-02-27T03:38:27.363Z,993.17
2023-02-27T03:39:27.399Z,993.17
2023-02-27T03:40:27.358Z,993.19
2023-02-27T03:41:27.789Z,993.21
2023-02-27T03:42:27.330Z,993.23
2023-02-27T03:43:27.326Z,993.23
2023-02-27T03:44:27.345Z,993.25
2023-02-27T03:45:27.314Z,993.28
2023-02-27T03:46:27.324Z,993.29
2023-02-27T03:47:27.306Z,993.30
2023-02-27T03:48:27.256Z,993.31
2023-02-27T03:49:27.263Z,993.31
2023-02-27T03:50:27.283Z,993.31
2023-02-27T03:51:27.663Z,993.33
2023-02-27T03:52:27.227Z,993.34
2023-02-27T03:53:27.219Z,993.33
2023-02-27T03:54:27.220Z,993.35
2023-02-27T03:55:27.224Z,993.36
2023-02-27T03:56:27.197Z,993.36
2023-02-27T03:57:27.194Z,993.37
2023-02-27T03:58:27.171Z,993.38
2023-02-27T03:59:27.158Z,993.39
2023-02-27T04:00:27.166Z,993.38
2023-02-27T04:01:27.546Z,993.37
2023-02-27T04:02:27.195Z,993.36
2023-02-27T04:03:27.118Z,993.39
2023-02-27T04:04:27.102Z,993.39
2023-02-27T04:05:27.116Z,993.40
2023-02-27T04:06:27.089Z,993.42
2023-02-27T04:07:27.104Z,993.44
2023-02-27T04:08:27.056Z,993.44
2023-02-27T04:09:27.056Z,993.46
2023-02-27T04:10:27.034Z,993.47
2023-02-27T04:11:27.372Z,993.47
2023-02-27T04:12:27.029Z,993.48
2023-02-27T04:13:27.115Z,993.49
2023-02-27T04:14:27.005Z,993.50
2023-02-27T04:15:27.013Z,993.50
2023-02-27T04:16:27.048Z,993.51
2023-02-27T04:17:26.991Z,993.52
2023-02-27T04:18:26.972Z,993.53
2023-02-27T04:19:26.988Z,993.54
2023-02-27T04:20:26.931Z,993.56
2023-02-27T04:21:27.295Z,993.56
2023-02-27T04:22:26.909Z,993.57
2023-02-27T04:23:26.904Z,993.57
2023-02-27T04:24:26.892Z,993.57
2023-02-27T04:25:27.106Z,993.58
2023-02-27T04:26:26.878Z,993.59
2023-02-27T04:27:26.878Z,993.61
2023-02-27T04:28:26.878Z,993.61
2023-02-27T04:29:26.870Z,993.63
2023-02-27T04:30:26.865Z,993.64
2023-02-27T04:31:27.389Z,993.65
2023-02-27T04:32:26.922Z,993.66
2023-02-27T04:33:26.833Z,993.66
2023-02-27T04:34:26.818Z,993.68
2023-02-27T04:35:26.794Z,993.68
2023-02-27T04:36:26.784Z,993.69
2023-02-27T04:37:26.800Z,993.69
2023-02-27T04:38:26.779Z,993.70
2023-02-27T04:39:26.771Z,993.70
2023-02-27T04:40:26.754Z,993.69
2023-02-27T04:41:27.165Z,993.69
2023-02-27T04:42:26.741Z,993.70
2023-02-27T04:43:26.744Z,993.70
2023-02-27T04:44:26.693Z,993.71
2023-02-27T04:45:26.729Z,993.72
2023-02-27T04:46:26.722Z,993.73
2023-02-27T04:47:26.683Z,993.73
2023-02-27T04:48:26.663Z,993.76
2023-02-27T04:49:26.685Z,993.77
2023-02-27T04:50:26.644Z,993.78
2023-02-27T04:51:26.947Z,993.80
2023-02-27T04:52:26.631Z,993.80
2023-02-27T04:53:26.635Z,993.80
2023-02-27T04:54:26.622Z,993.80
2023-02-27T04:55:26.637Z,993.81
2023-02-27T04:56:26.593Z,993.81
2023-02-27T04:57:26.590Z,993.83
2023-02-27T04:58:26.572Z,993.84
2023-02-27T04:59:26.548Z,993.84
2023-02-27T05:00:26.535Z,993.85
2023-02-27T05:01:26.979Z,993.85
2023-02-27T05:02:26.616Z,993.86
2023-02-27T05:03:26.524Z,993.88
2023-02-27T05:04:26.491Z,993.88
2023-02-27T05:05:26.498Z,993.88
2023-02-27T05:06:26.480Z,993.89
2023-02-27T05:07:26.507Z,993.90
2023-02-27T05:08:26.484Z,993.91
2023-02-27T05:09:26.468Z,993.93
2023-02-27T05:10:26.458Z,993.94
2023-02-27T05:11:26.865Z,993.95
2023-02-27T05:12:26.448Z,993.96
2023-02-27T05:13:26.416Z,993.96
2023-02-27T05:14:26.401Z,993.97
2023-02-27T05:15:26.432Z,993.98
2023-02-27T05:16:26.437Z,993.98
2023-02-27T05:17:26.379Z,993.98
2023-02-27T05:18:26.401Z,993.98
2023-02-27T05:19:26.376Z,993.97
2023-02-27T05:20:28.386Z,993.97
2023-02-27T05:21:26.716Z,993.97
2023-02-27T05:22:26.329Z,993.98
2023-02-27T05:23:26.322Z,993.98
2023-02-27T05:24:26.317Z,993.97
2023-02-27T05:25:26.286Z,993.96
2023-02-27T05:26:26.280Z,993.94
2023-02-27T05:27:26.277Z,993.95
2023-02-27T05:28:26.246Z,993.95
2023-02-27T05:29:26.251Z,993.95
2023-02-27T05:30:26.266Z,993.96
2023-02-27T05:31:26.647Z,993.97
2023-02-27T05:32:26.273Z,993.98
2023-02-27T05:33:26.242Z,994.00
2023-02-27T05:34:26.201Z,994.01
2023-02-27T05:35:28.931Z,994.02
2023-02-27T05:36:26.225Z,994.03
2023-02-27T05:37:26.172Z,994.04
2023-02-27T05:38:26.173Z,994.06
2023-02-27T05:39:26.140Z,994.06
2023-02-27T05:40:26.131Z,994.07
2023-02-27T05:41:26.494Z,994.07
2023-02-27T05:42:26.143Z,994.09
2023-02-27T05:43:26.118Z,994.08
2023-02-27T05:44:26.101Z,994.08
2023-02-27T05:45:26.093Z,994.08
2023-02-27T05:46:26.084Z,994.08
2023-02-27T05:47:26.088Z,994.10
2023-02-27T05:48:26.081Z,994.11
2023-02-27T05:49:26.039Z,994.12
2023-02-27T05:50:26.039Z,994.14
2023-02-27T05:51:26.374Z,994.16
2023-02-27T05:52:26.009Z,994.15
2023-02-27T05:53:26.005Z,994.15
2023-02-27T05:54:26.016Z,994.16
2023-02-27T05:55:25.987Z,994.16
2023-02-27T05:56:26.411Z,994.18
2023-02-27T05:57:25.984Z,994.18
2023-02-27T05:58:25.950Z,994.18
2023-02-27T05:59:25.957Z,994.19
2023-02-27T06:00:25.973Z,994.19
2023-02-27T06:01:25.929Z,994.20
2023-02-27T06:02:25.959Z,994.19
2023-02-27T06:03:26.060Z,994.21
2023-02-27T06:04:25.899Z,994.21
2023-02-27T06:05:25.881Z,994.21
2023-02-27T06:06:26.196Z,994.22
2023-02-27T06:07:25.873Z,994.22
2023-02-27T06:08:25.859Z,994.25
2023-02-27T06:09:25.836Z,994.27
2023-02-27T06:10:25.828Z,994.28
2023-02-27T06:11:25.875Z,994.31
2023-02-27T06:12:25.834Z,994.33
2023-02-27T06:13:25.826Z,994.34
2023-02-27T06:14:25.802Z,994.35
2023-02-27T06:15:25.781Z,994.37
2023-02-27T06:16:26.318Z,994.38
2023-02-27T06:17:25.768Z,994.39
2023-02-27T06:18:25.803Z,994.41
2023-02-27T06:19:25.728Z,994.41
2023-02-27T06:20:25.737Z,994.44
2023-02-27T06:21:25.709Z,994.45
2023-02-27T06:22:25.710Z,994.47
2023-02-27T06:23:25.692Z,994.48
2023-02-27T06:24:25.724Z,994.49
2023-02-27T06:25:25.675Z,994.50
2023-02-27T06:26:26.160Z,994.50
2023-02-27T06:27:25.676Z,994.52
2023-02-27T06:28:25.664Z,994.52
2023-02-27T06:29:25.679Z,994.53
2023-02-27T06:30:25.638Z,994.53
2023-02-27T06:31:25.626Z,994.54
2023-02-27T06:32:25.683Z,994.53
2023-02-27T06:33:25.596Z,994.49
2023-02-27T06:34:25.599Z,994.49
2023-02-27T06:35:25.627Z,994.47
2023-02-27T06:36:25.857Z,994.48
2023-02-27T06:37:25.549Z,994.49
2023-02-27T06:38:25.531Z,994.50
2023-02-27T06:39:25.519Z,994.49
2023-02-27T06:40:25.517Z,994.50
2023-02-27T06:41:25.516Z,994.49
2023-02-27T06:42:25.500Z,994.49
2023-02-27T06:43:25.491Z,994.49
2023-02-27T06:44:25.498Z,994.48
2023-02-27T06:45:25.485Z,994.48
2023-02-27T06:46:25.892Z,994.48
2023-02-27T06:47:25.464Z,994.48
2023-02-27T06:48:25.438Z,994.47
2023-02-27T06:49:25.415Z,994.47
2023-02-27T06:50:25.417Z,994.46
2023-02-27T06:51:25.410Z,994.47
2023-02-27T06:52:25.407Z,994.46
2023-02-27T06:53:25.433Z,994.46
2023-02-27T06:54:25.385Z,994.47
2023-02-27T06:55:25.372Z,994.47
2023-02-27T06:56:25.678Z,994.48
2023-02-27T06:57:25.347Z,994.48
2023-02-27T06:58:25.348Z,994.50
2023-02-27T06:59:25.348Z,994.50
2023-02-27T07:00:25.302Z,994.51
2023-02-27T07:01:25.342Z,994.51
2023-02-27T07:02:25.296Z,994.54
2023-02-27T07:03:25.282Z,994.54
2023-02-27T07:04:25.288Z,994.55
2023-02-27T07:05:26.018Z,994.56
2023-02-27T07:07:32.697Z,994.56
2023-02-27T07:07:41.096Z,994.59
2023-02-27T07:08:25.241Z,994.61
2023-02-27T07:09:25.241Z,994.62
2023-02-27T07:10:25.220Z,994.63
2023-02-27T07:11:25.240Z,994.62
2023-02-27T07:12:25.210Z,994.63
2023-02-27T07:13:25.193Z,994.64
2023-02-27T07:14:25.182Z,994.63
2023-02-27T07:15:25.153Z,994.65
2023-02-27T07:16:25.461Z,994.62
2023-02-27T07:17:25.174Z,994.63
2023-02-27T07:18:25.130Z,994.64
2023-02-27T07:19:25.143Z,994.64
2023-02-27T07:20:25.141Z,994.64
2023-02-27T07:21:25.122Z,994.64
2023-02-27T07:22:25.121Z,994.65
2023-02-27T07:23:25.096Z,994.65
2023-02-27T07:24:25.076Z,994.68
2023-02-27T07:25:25.068Z,994.68
2023-02-27T07:26:25.234Z,994.68
2023-02-27T07:27:25.041Z,994.70
2023-02-27T07:28:25.074Z,994.72
2023-02-27T07:29:25.022Z,994.72
2023-02-27T07:30:25.011Z,994.73
2023-02-27T07:31:25.603Z,994.73
2023-02-27T07:32:25.011Z,994.74
2023-02-27T07:33:25.002Z,994.75
2023-02-27T07:34:25.036Z,994.77
2023-02-27T07:35:24.970Z,994.76
2023-02-27T07:36:25.249Z,994.75
2023-02-27T07:37:27.622Z,994.73
2023-02-27T07:38:24.952Z,994.74
2023-02-27T07:39:24.920Z,994.75
2023-02-27T07:40:24.937Z,994.74
2023-02-27T07:41:30.746Z,994.76
2023-02-27T07:42:24.900Z,994.77
2023-02-27T07:43:24.891Z,994.78
2023-02-27T07:44:24.872Z,994.78
2023-02-27T07:45:24.896Z,994.79
2023-02-27T07:46:24.953Z,994.77
2023-02-27T07:47:24.860Z,994.80
2023-02-27T07:48:24.856Z,994.80
2023-02-27T07:49:24.834Z,994.80
2023-02-27T07:50:24.837Z,994.77
2023-02-27T07:51:24.848Z,994.75
2023-02-27T07:52:24.813Z,994.78
2023-02-27T07:53:24.792Z,994.78
2023-02-27T07:54:24.797Z,994.78
2023-02-27T07:55:24.782Z,994.77
2023-02-27T07:56:24.786Z,994.75
2023-02-27T07:57:24.794Z,994.77
2023-02-27T07:58:24.761Z,994.78
2023-02-27T07:59:24.746Z,994.79
2023-02-27T08:00:24.731Z,994.77
2023-02-27T08:01:24.719Z,994.78
2023-02-27T08:02:24.764Z,994.78
2023-02-27T08:03:24.734Z,994.79
2023-02-27T08:04:24.705Z,994.80
2023-02-27T08:05:24.674Z,994.79
2023-02-27T08:06:24.701Z,994.78
2023-02-27T08:07:24.650Z,994.78
2023-02-27T08:08:24.683Z,994.80
2023-02-27T08:09:24.626Z,994.79
2023-02-27T08:10:24.632Z,994.81
2023-02-27T08:11:24.732Z,994.79
2023-02-27T08:12:24.619Z,994.77
2023-02-27T08:13:55.625Z,994.78
2023-02-27T08:14:24.638Z,994.76
2023-02-27T08:15:24.739Z,994.77
2023-02-27T08:16:24.708Z,994.77
2023-02-27T08:17:24.558Z,994.77
2023-02-27T08:18:24.553Z,994.78
2023-02-27T08:19:24.536Z,994.79
2023-02-27T08:20:24.586Z,994.74
2023-02-27T08:21:24.736Z,994.78
2023-02-27T08:22:24.521Z,994.79
2023-02-27T08:23:24.498Z,994.79
2023-02-27T08:24:24.483Z,994.81
2023-02-27T08:25:24.473Z,994.82
2023-02-27T08:26:24.495Z,994.78
2023-02-27T08:27:24.447Z,994.81
2023-02-27T08:28:24.450Z,994.82
2023-02-27T08:29:24.435Z,994.81
2023-02-27T08:30:24.422Z,994.82
2023-02-27T08:31:24.480Z,994.82
2023-02-27T08:32:24.459Z,994.83
2023-02-27T08:33:24.412Z,994.91
2023-02-27T08:34:24.399Z,994.87
2023-02-27T08:35:24.377Z,994.90
2023-02-27T08:36:24.443Z,994.88
2023-02-27T08:37:24.405Z,994.87
2023-02-27T08:38:26.384Z,994.86
2023-02-27T08:39:24.358Z,994.87
2023-02-27T08:40:24.353Z,994.88
2023-02-27T08:41:24.323Z,994.89
2023-02-27T08:42:26.605Z,994.89
2023-02-27T08:43:24.322Z,994.89
2023-02-27T08:44:24.302Z,994.89
2023-02-27T08:45:24.330Z,994.92
2023-02-27T08:46:24.497Z,994.94
2023-02-27T08:47:24.285Z,995.00
2023-02-27T08:48:24.264Z,994.97
2023-02-27T08:49:24.270Z,994.99
2023-02-27T08:50:24.311Z,994.99
2023-02-27T08:51:24.213Z,994.98
2023-02-27T08:52:25.074Z,994.95
2023-02-27T08:53:24.198Z,994.96
2023-02-27T08:54:24.219Z,994.97
2023-02-27T08:55:24.191Z,994.99
2023-02-27T08:56:24.433Z,994.94
2023-02-27T08:57:24.167Z,995.00
2023-02-27T08:58:24.168Z,994.99
2023-02-27T08:59:24.161Z,995.03
2023-02-27T09:00:24.306Z,995.07
2023-02-27T09:01:24.164Z,995.08
2023-02-27T09:02:24.165Z,995.07
2023-02-27T09:03:24.100Z,995.10
2023-02-27T09:04:24.110Z,995.10
2023-02-27T09:05:24.087Z,995.12
2023-02-27T09:06:26.236Z,995.14
2023-02-27T09:07:24.073Z,995.11
2023-02-27T09:08:24.060Z,995.15
2023-02-27T09:09:24.039Z,995.11
2023-02-27T09:10:24.077Z,995.09
2023-02-27T09:11:24.019Z,995.12
2023-02-27T09:12:24.055Z,995.08
2023-02-27T09:13:24.009Z,995.11
2023-02-27T09:14:24.017Z,995.11
2023-02-27T09:15:23.980Z,995.06
2023-02-27T09:16:24.014Z,995.10
2023-02-27T09:17:23.959Z,995.05
2023-02-27T09:18:23.972Z,995.03
2023-02-27T09:19:23.961Z,995.03
2023-02-27T09:20:23.949Z,995.05
2023-02-27T09:21:23.918Z,995.01
2023-02-27T09:22:23.908Z,995.00
2023-02-27T09:23:23.912Z,994.97
2023-02-27T09:24:23.938Z,994.98
2023-02-27T09:25:23.882Z,995.03
2023-02-27T09:26:39.354Z,994.98
2023-02-27T09:27:23.882Z,994.98
2023-02-27T09:28:23.858Z,994.97
2023-02-27T09:29:24.417Z,994.97
2023-02-27T09:30:23.841Z,994.91
2023-02-27T09:31:23.903Z,994.90
2023-02-27T09:32:23.937Z,994.92
2023-02-27T09:33:23.802Z,994.95
2023-02-27T09:34:23.795Z,994.97
2023-02-27T09:35:23.819Z,994.96
2023-02-27T09:36:23.782Z,994.95
2023-02-27T09:37:23.753Z,994.94
2023-02-27T09:38:23.755Z,994.99
2023-02-27T09:39:23.755Z,994.98
2023-02-27T09:40:23.756Z,995.04
2023-02-27T09:41:23.760Z,995.04
2023-02-27T09:42:23.724Z,995.02
2023-02-27T09:43:23.766Z,995.07
2023-02-27T09:44:36.484Z,995.12
2023-02-27T09:45:23.702Z,995.10
2023-02-27T09:46:23.679Z,995.11
2023-02-27T09:47:23.690Z,995.10
2023-02-27T09:48:23.656Z,995.12
2023-02-27T09:49:23.643Z,995.13
2023-02-27T09:50:23.634Z,995.12
2023-02-27T09:51:23.620Z,995.16
2023-02-27T09:52:23.608Z,995.14
2023-02-27T09:53:23.617Z,995.19
2023-02-27T09:54:23.586Z,995.23
2023-02-27T09:55:23.598Z,995.23
2023-02-27T09:56:23.577Z,995.25
2023-02-27T09:57:23.580Z,995.24
2023-02-27T09:58:23.586Z,995.31
2023-02-27T09:59:23.538Z,995.23
2023-02-27T10:00:23.526Z,995.23
2023-02-27T10:01:23.514Z,995.26
2023-02-27T10:02:23.545Z,995.27
2023-02-27T10:03:23.539Z,995.28
2023-02-27T10:04:23.535Z,995.25
2023-02-27T10:05:23.500Z,995.28
2023-02-27T10:06:23.489Z,995.26
2023-02-27T10:07:23.476Z,995.26
2023-02-27T10:08:23.472Z,995.23
2023-02-27T10:09:23.482Z,995.26
2023-02-27T10:10:23.453Z,995.28
2023-02-27T10:11:23.430Z,995.26
2023-02-27T10:12:23.432Z,995.19
2023-02-27T10:13:23.395Z,995.25
2023-02-27T10:14:23.395Z,995.25
2023-02-27T10:15:23.403Z,995.27
2023-02-27T10:16:23.432Z,995.26
2023-02-27T10:17:23.375Z,995.24
2023-02-27T10:18:27.605Z,995.26
2023-02-27T10:19:23.361Z,995.26
2023-02-27T10:20:23.385Z,995.25
2023-02-27T10:21:23.328Z,995.24
2023-02-27T10:22:23.332Z,995.22
2023-02-27T10:23:23.310Z,995.21
2023-02-27T10:24:23.306Z,995.17
2023-02-27T10:25:31.138Z,995.23
2023-02-27T10:26:23.316Z,995.23
2023-02-27T10:27:23.266Z,995.20
2023-02-27T10:28:23.256Z,995.20
2023-02-27T10:29:23.239Z,995.20
2023-02-27T10:30:29.270Z,995.17
2023-02-27T10:31:23.240Z,995.14
2023-02-27T10:32:23.440Z,995.11
2023-02-27T10:33:23.209Z,995.12
2023-02-27T10:34:23.182Z,995.11
2023-02-27T10:35:23.200Z,995.06
2023-02-27T10:36:33.510Z,995.12
2023-02-27T10:37:23.185Z,995.10
2023-02-27T10:38:23.181Z,995.09
2023-02-27T10:39:23.162Z,995.08
2023-02-27T10:40:23.164Z,995.08
2023-02-27T10:41:23.133Z,995.13
2023-02-27T10:42:23.125Z,995.13
2023-02-27T10:43:23.104Z,995.14
2023-02-27T10:44:23.080Z,995.13
2023-02-27T10:45:23.085Z,995.09
2023-02-27T10:46:23.182Z,995.12
2023-02-27T10:47:23.199Z,995.08
2023-02-27T10:48:23.052Z,995.11
2023-02-27T10:49:23.044Z,995.11
2023-02-27T10:50:23.026Z,995.14
2023-02-27T10:51:23.091Z,995.12
2023-02-27T10:52:23.020Z,995.13
2023-02-27T10:53:23.036Z,995.11
2023-02-27T10:54:23.021Z,995.08
2023-02-27T10:55:22.993Z,995.08
2023-02-27T10:56:22.984Z,995.08
2023-02-27T10:57:23.019Z,995.10
2023-02-27T10:58:22.955Z,995.10
2023-02-27T10:59:22.957Z,995.11
2023-02-27T11:00:22.938Z,995.07
2023-02-27T11:01:23.040Z,995.16
2023-02-27T11:02:22.907Z,995.06
2023-02-27T11:03:22.952Z,995.09
2023-02-27T11:04:22.932Z,995.15
2023-02-27T11:05:22.892Z,995.12
2023-02-27T11:06:22.889Z,995.12
2023-02-27T11:07:22.857Z,995.10
2023-02-27T11:08:22.843Z,995.12
2023-02-27T11:09:22.873Z,995.06
2023-02-27T11:10:22.822Z,995.07
2023-02-27T11:11:22.825Z,995.03
2023-02-27T11:12:22.795Z,995.03
2023-02-27T11:13:22.809Z,995.00
2023-02-27T11:14:22.795Z,994.96
2023-02-27T11:15:22.837Z,994.98
2023-02-27T11:16:22.777Z,994.93
2023-02-27T11:17:22.777Z,994.93
2023-02-27T11:18:22.745Z,994.93
2023-02-27T11:19:22.751Z,994.99
2023-02-27T11:20:22.729Z,994.89
2023-02-27T11:21:23.250Z,994.91
2023-02-27T11:22:22.708Z,994.88
2023-02-27T11:23:22.727Z,994.80
2023-02-27T11:24:22.707Z,994.82
2023-02-27T11:25:22.672Z,994.85
2023-02-27T11:26:22.661Z,994.79
2023-02-27T11:27:22.676Z,994.75
2023-02-27T11:28:22.644Z,994.76
2023-02-27T11:29:22.634Z,994.74
2023-02-27T11:30:22.625Z,994.67
2023-02-27T11:31:22.664Z,994.66
2023-02-27T11:32:22.653Z,994.61
2023-02-27T11:33:22.642Z,994.61
2023-02-27T11:34:22.589Z,994.60
2023-02-27T11:35:22.588Z,994.55
2023-02-27T11:36:22.608Z,994.56
2023-02-27T11:37:22.557Z,994.54
2023-02-27T11:38:22.542Z,994.52
2023-02-27T11:39:22.584Z,994.54
2023-02-27T11:40:22.538Z,994.49
2023-02-27T11:41:22.521Z,994.46
2023-02-27T11:42:22.536Z,994.46
2023-02-27T11:43:22.507Z,994.49
2023-02-27T11:44:50.651Z,994.53
2023-02-27T11:46:14.672Z,994.50
2023-02-27T11:46:51.400Z,994.47
2023-02-27T11:47:22.504Z,994.48
2023-02-27T11:48:22.457Z,994.48
2023-02-27T11:49:22.424Z,994.45
2023-02-27T11:50:22.412Z,994.49
2023-02-27T11:51:22.424Z,994.49
2023-02-27T11:52:22.383Z,994.48
2023-02-27T11:53:22.422Z,994.52
2023-02-27T11:54:22.372Z,994.47
2023-02-27T11:55:22.371Z,994.42
2023-02-27T11:56:22.358Z,994.46
2023-02-27T11:57:22.357Z,994.48
2023-02-27T11:58:22.328Z,994.47
2023-02-27T11:59:22.381Z,994.46
2023-02-27T12:00:22.312Z,994.46
2023-02-27T12:01:22.311Z,994.49
2023-02-27T12:02:22.346Z,994.47
2023-02-27T12:03:22.273Z,994.47
2023-02-27T12:04:22.334Z,994.54
2023-02-27T12:05:22.296Z,994.53
2023-02-27T12:06:22.242Z,994.51
2023-02-27T12:07:22.246Z,994.52
2023-02-27T12:08:22.246Z,994.49
2023-02-27T12:09:22.229Z,994.46
2023-02-27T12:10:22.203Z,994.46
2023-02-27T12:11:22.211Z,994.50
2023-02-27T12:12:22.190Z,994.43
2023-02-27T12:13:22.185Z,994.41
2023-02-27T12:14:22.208Z,994.43
2023-02-27T12:15:22.166Z,994.43
2023-02-27T12:16:22.245Z,994.48
2023-02-27T12:17:22.130Z,994.43
2023-02-27T12:18:22.111Z,994.44
2023-02-27T12:19:22.143Z,994.47
2023-02-27T12:20:22.121Z,994.51
2023-02-27T12:21:22.104Z,994.47
2023-02-27T12:22:22.320Z,994.45
2023-02-27T12:23:22.109Z,994.41
2023-02-27T12:24:22.076Z,994.46
2023-02-27T12:25:22.067Z,994.49
2023-02-27T12:26:22.059Z,994.43
2023-02-27T12:27:22.022Z,994.39
2023-02-27T12:28:22.065Z,994.37